sensor_id;sensor_type;location;lat;lon;timestamp;P1;durP1;ratioP1;P2;durP2;ratioP2
10132;SDS011;5106;50.926;7.080;2023-04-06T00:00:55;6.43;;;3.20;;
10132;SDS011;5106;50.926;7.080;2023-04-06T00:03:21;4.93;;;3.43;;
10132;SDS011;5106;50.926;7.080;2023-04-06T00:05:47;4.03;;;3.33;;
10132;SDS011;5106;50.926;7.080;2023-04-06T00:08:12;6.00;;;3.40;;
10132;SDS011;5106;50.926;7.080;2023-04-06T00:10:38;4.43;;;3.23;;
10132;SDS011;5106;50.926;7.080;2023-04-06T00:13:04;5.50;;;3.40;;
10132;SDS011;5106;50.926;7.080;2023-04-06T00:15:30;6.23;;;3.37;;
10132;SDS011;5106;50.926;7.080;2023-04-06T00:17:56;4.40;;;3.60;;
10132;SDS011;5106;50.926;7.080;2023-04-06T00:20:22;5.20;;;3.60;;
10132;SDS011;5106;50.926;7.080;2023-04-06T00:22:48;5.63;;;3.50;;
10132;SDS011;5106;50.926;7.080;2023-04-06T00:25:14;4.97;;;3.90;;
10132;SDS011;5106;50.926;7.080;2023-04-06T00:27:40;4.80;;;4.07;;
10132;SDS011;5106;50.926;7.080;2023-04-06T00:30:07;5.47;;;3.80;;
10132;SDS011;5106;50.926;7.080;2023-04-06T00:32:34;5.67;;;3.90;;
10132;SDS011;5106;50.926;7.080;2023-04-06T00:35:01;4.23;;;3.80;;
10132;SDS011;5106;50.926;7.080;2023-04-06T00:37:28;5.03;;;4.27;;
10132;SDS011;5106;50.926;7.080;2023-04-06T00:39:53;4.83;;;4.07;;
10132;SDS011;5106;50.926;7.080;2023-04-06T00:42:19;4.63;;;3.80;;
10132;SDS011;5106;50.926;7.080;2023-04-06T00:44:54;4.50;;;3.83;;
10132;SDS011;5106;50.926;7.080;2023-04-06T00:47:21;5.03;;;3.77;;
10132;SDS011;5106;50.926;7.080;2023-04-06T00:49:47;5.63;;;4.00;;
10132;SDS011;5106;50.926;7.080;2023-04-06T00:52:13;9.20;;;4.40;;
10132;SDS011;5106;50.926;7.080;2023-04-06T00:54:40;8.10;;;4.03;;
10132;SDS011;5106;50.926;7.080;2023-04-06T00:57:06;5.80;;;4.00;;
10132;SDS011;5106;50.926;7.080;2023-04-06T00:59:31;4.97;;;4.13;;
10132;SDS011;5106;50.926;7.080;2023-04-06T01:01:57;5.50;;;4.03;;
10132;SDS011;5106;50.926;7.080;2023-04-06T01:04:23;4.67;;;3.90;;
10132;SDS011;5106;50.926;7.080;2023-04-06T01:06:49;6.30;;;4.60;;
10132;SDS011;5106;50.926;7.080;2023-04-06T01:09:16;9.23;;;5.30;;
10132;SDS011;5106;50.926;7.080;2023-04-06T01:11:42;6.67;;;4.70;;
10132;SDS011;5106;50.926;7.080;2023-04-06T01:14:08;5.10;;;3.93;;
10132;SDS011;5106;50.926;7.080;2023-04-06T01:16:34;4.60;;;3.50;;
10132;SDS011;5106;50.926;7.080;2023-04-06T01:19:01;5.67;;;3.93;;
10132;SDS011;5106;50.926;7.080;2023-04-06T01:21:31;8.23;;;4.77;;
10132;SDS011;5106;50.926;7.080;2023-04-06T01:23:57;5.33;;;4.40;;
10132;SDS011;5106;50.926;7.080;2023-04-06T01:26:22;5.90;;;3.90;;
10132;SDS011;5106;50.926;7.080;2023-04-06T01:28:48;6.50;;;4.77;;
10132;SDS011;5106;50.926;7.080;2023-04-06T01:31:14;5.57;;;4.17;;
10132;SDS011;5106;50.926;7.080;2023-04-06T01:33:40;8.57;;;5.13;;
10132;SDS011;5106;50.926;7.080;2023-04-06T01:36:05;5.47;;;4.50;;
10132;SDS011;5106;50.926;7.080;2023-04-06T01:38:31;5.60;;;4.40;;
10132;SDS011;5106;50.926;7.080;2023-04-06T01:40:57;6.00;;;4.67;;
10132;SDS011;5106;50.926;7.080;2023-04-06T01:43:23;6.07;;;4.37;;
10132;SDS011;5106;50.926;7.080;2023-04-06T01:45:48;4.60;;;4.07;;
10132;SDS011;5106;50.926;7.080;2023-04-06T01:48:14;5.87;;;4.60;;
10132;SDS011;5106;50.926;7.080;2023-04-06T01:50:40;6.77;;;4.30;;
10132;SDS011;5106;50.926;7.080;2023-04-06T01:53:06;5.20;;;3.97;;
10132;SDS011;5106;50.926;7.080;2023-04-06T01:55:31;6.97;;;4.03;;
10132;SDS011;5106;50.926;7.080;2023-04-06T01:57:57;5.27;;;4.10;;
10132;SDS011;5106;50.926;7.080;2023-04-06T02:00:22;5.03;;;4.30;;
10132;SDS011;5106;50.926;7.080;2023-04-06T02:02:48;4.83;;;3.73;;
10132;SDS011;5106;50.926;7.080;2023-04-06T02:05:13;4.40;;;3.80;;
10132;SDS011;5106;50.926;7.080;2023-04-06T02:07:39;5.57;;;4.20;;
10132;SDS011;5106;50.926;7.080;2023-04-06T02:10:10;4.67;;;3.90;;
10132;SDS011;5106;50.926;7.080;2023-04-06T02:12:39;5.83;;;4.40;;
10132;SDS011;5106;50.926;7.080;2023-04-06T02:15:05;8.23;;;4.17;;
10132;SDS011;5106;50.926;7.080;2023-04-06T02:17:31;6.17;;;4.30;;
10132;SDS011;5106;50.926;7.080;2023-04-06T02:19:56;8.47;;;4.07;;
10132;SDS011;5106;50.926;7.080;2023-04-06T02:22:22;8.73;;;4.60;;
10132;SDS011;5106;50.926;7.080;2023-04-06T02:24:48;4.83;;;3.87;;
10132;SDS011;5106;50.926;7.080;2023-04-06T02:27:14;5.77;;;4.50;;
10132;SDS011;5106;50.926;7.080;2023-04-06T02:29:40;4.67;;;4.07;;
10132;SDS011;5106;50.926;7.080;2023-04-06T02:32:05;7.03;;;4.17;;
10132;SDS011;5106;50.926;7.080;2023-04-06T02:34:31;5.97;;;3.97;;
10132;SDS011;5106;50.926;7.080;2023-04-06T02:36:57;5.00;;;4.23;;
10132;SDS011;5106;50.926;7.080;2023-04-06T02:39:22;5.23;;;4.10;;
10132;SDS011;5106;50.926;7.080;2023-04-06T02:41:48;5.73;;;3.77;;
10132;SDS011;5106;50.926;7.080;2023-04-06T02:44:13;6.33;;;4.30;;
10132;SDS011;5106;50.926;7.080;2023-04-06T02:46:39;4.67;;;4.07;;
10132;SDS011;5106;50.926;7.080;2023-04-06T02:49:05;5.10;;;4.10;;
10132;SDS011;5106;50.926;7.080;2023-04-06T02:51:30;5.77;;;4.27;;
10132;SDS011;5106;50.926;7.080;2023-04-06T02:53:56;5.37;;;4.10;;
10132;SDS011;5106;50.926;7.080;2023-04-06T02:56:22;5.57;;;4.30;;
10132;SDS011;5106;50.926;7.080;2023-04-06T02:58:48;5.00;;;4.23;;
10132;SDS011;5106;50.926;7.080;2023-04-06T03:01:13;7.53;;;4.27;;
10132;SDS011;5106;50.926;7.080;2023-04-06T03:03:39;7.10;;;4.23;;
10132;SDS011;5106;50.926;7.080;2023-04-06T03:06:05;5.20;;;4.07;;
10132;SDS011;5106;50.926;7.080;2023-04-06T03:08:31;5.57;;;3.83;;
10132;SDS011;5106;50.926;7.080;2023-04-06T03:10:56;5.13;;;4.20;;
10132;SDS011;5106;50.926;7.080;2023-04-06T03:13:22;4.83;;;3.70;;
10132;SDS011;5106;50.926;7.080;2023-04-06T03:15:48;6.23;;;4.10;;
10132;SDS011;5106;50.926;7.080;2023-04-06T03:18:13;4.43;;;3.73;;
10132;SDS011;5106;50.926;7.080;2023-04-06T03:20:39;4.30;;;3.90;;
10132;SDS011;5106;50.926;7.080;2023-04-06T03:23:05;5.43;;;4.07;;
10132;SDS011;5106;50.926;7.080;2023-04-06T03:25:31;4.63;;;4.00;;
10132;SDS011;5106;50.926;7.080;2023-04-06T03:27:56;5.60;;;4.10;;
10132;SDS011;5106;50.926;7.080;2023-04-06T03:30:22;6.40;;;4.40;;
10132;SDS011;5106;50.926;7.080;2023-04-06T03:32:48;4.77;;;3.90;;
10132;SDS011;5106;50.926;7.080;2023-04-06T03:35:13;4.87;;;3.90;;
10132;SDS011;5106;50.926;7.080;2023-04-06T03:37:39;4.53;;;4.10;;
10132;SDS011;5106;50.926;7.080;2023-04-06T03:40:05;6.87;;;4.37;;
10132;SDS011;5106;50.926;7.080;2023-04-06T03:42:31;6.53;;;4.13;;
10132;SDS011;5106;50.926;7.080;2023-04-06T03:44:57;5.83;;;4.07;;
10132;SDS011;5106;50.926;7.080;2023-04-06T03:47:25;7.93;;;4.67;;
10132;SDS011;5106;50.926;7.080;2023-04-06T03:49:51;5.37;;;4.20;;
10132;SDS011;5106;50.926;7.080;2023-04-06T03:52:17;5.03;;;4.07;;
10132;SDS011;5106;50.926;7.080;2023-04-06T03:54:42;6.57;;;4.67;;
10132;SDS011;5106;50.926;7.080;2023-04-06T03:57:08;7.13;;;4.30;;
10132;SDS011;5106;50.926;7.080;2023-04-06T03:59:33;5.47;;;4.30;;
10132;SDS011;5106;50.926;7.080;2023-04-06T04:02:00;5.40;;;4.40;;
10132;SDS011;5106;50.926;7.080;2023-04-06T04:04:25;6.00;;;4.30;;
10132;SDS011;5106;50.926;7.080;2023-04-06T04:06:51;6.13;;;4.40;;
10132;SDS011;5106;50.926;7.080;2023-04-06T04:09:17;5.23;;;4.20;;
10132;SDS011;5106;50.926;7.080;2023-04-06T04:11:42;4.80;;;4.10;;
10132;SDS011;5106;50.926;7.080;2023-04-06T04:14:08;6.93;;;4.53;;
10132;SDS011;5106;50.926;7.080;2023-04-06T04:16:33;5.30;;;4.40;;
10132;SDS011;5106;50.926;7.080;2023-04-06T04:18:59;6.17;;;4.67;;
10132;SDS011;5106;50.926;7.080;2023-04-06T04:21:25;5.73;;;4.23;;
10132;SDS011;5106;50.926;7.080;2023-04-06T04:23:50;6.20;;;4.60;;
10132;SDS011;5106;50.926;7.080;2023-04-06T04:26:17;5.70;;;4.40;;
10132;SDS011;5106;50.926;7.080;2023-04-06T04:28:43;4.80;;;4.00;;
10132;SDS011;5106;50.926;7.080;2023-04-06T04:31:09;6.63;;;4.77;;
10132;SDS011;5106;50.926;7.080;2023-04-06T04:33:35;5.73;;;4.73;;
10132;SDS011;5106;50.926;7.080;2023-04-06T04:36:00;7.03;;;4.50;;
10132;SDS011;5106;50.926;7.080;2023-04-06T04:38:26;6.37;;;4.17;;
10132;SDS011;5106;50.926;7.080;2023-04-06T04:40:52;5.30;;;4.37;;
10132;SDS011;5106;50.926;7.080;2023-04-06T04:43:17;5.30;;;4.27;;
10132;SDS011;5106;50.926;7.080;2023-04-06T04:45:43;4.70;;;4.20;;
10132;SDS011;5106;50.926;7.080;2023-04-06T04:48:09;5.43;;;4.47;;
10132;SDS011;5106;50.926;7.080;2023-04-06T04:50:35;7.80;;;4.33;;
10132;SDS011;5106;50.926;7.080;2023-04-06T04:53:00;4.80;;;4.20;;
10132;SDS011;5106;50.926;7.080;2023-04-06T04:55:26;6.07;;;4.43;;
10132;SDS011;5106;50.926;7.080;2023-04-06T04:57:52;5.77;;;4.17;;
10132;SDS011;5106;50.926;7.080;2023-04-06T05:00:18;4.47;;;3.93;;
10132;SDS011;5106;50.926;7.080;2023-04-06T05:02:44;5.17;;;4.17;;
10132;SDS011;5106;50.926;7.080;2023-04-06T05:05:10;6.57;;;4.37;;
10132;SDS011;5106;50.926;7.080;2023-04-06T05:07:36;7.77;;;4.33;;
10132;SDS011;5106;50.926;7.080;2023-04-06T05:10:01;6.90;;;4.53;;
10132;SDS011;5106;50.926;7.080;2023-04-06T05:12:27;5.43;;;4.13;;
10132;SDS011;5106;50.926;7.080;2023-04-06T05:14:53;5.73;;;4.20;;
10132;SDS011;5106;50.926;7.080;2023-04-06T05:17:19;7.83;;;5.07;;
10132;SDS011;5106;50.926;7.080;2023-04-06T05:19:45;5.80;;;4.50;;
10132;SDS011;5106;50.926;7.080;2023-04-06T05:22:11;6.30;;;4.90;;
10132;SDS011;5106;50.926;7.080;2023-04-06T05:24:39;5.00;;;4.13;;
10132;SDS011;5106;50.926;7.080;2023-04-06T05:27:05;5.40;;;4.23;;
10132;SDS011;5106;50.926;7.080;2023-04-06T05:29:31;6.80;;;4.47;;
10132;SDS011;5106;50.926;7.080;2023-04-06T05:31:57;5.60;;;4.47;;
10132;SDS011;5106;50.926;7.080;2023-04-06T05:34:22;5.87;;;4.43;;
10132;SDS011;5106;50.926;7.080;2023-04-06T05:36:48;4.93;;;4.20;;
10132;SDS011;5106;50.926;7.080;2023-04-06T05:39:13;6.17;;;4.27;;
10132;SDS011;5106;50.926;7.080;2023-04-06T05:41:39;6.40;;;4.40;;
10132;SDS011;5106;50.926;7.080;2023-04-06T05:44:05;6.13;;;4.80;;
10132;SDS011;5106;50.926;7.080;2023-04-06T05:46:31;7.30;;;4.80;;
10132;SDS011;5106;50.926;7.080;2023-04-06T05:48:56;7.43;;;5.07;;
10132;SDS011;5106;50.926;7.080;2023-04-06T05:51:22;6.73;;;4.90;;
10132;SDS011;5106;50.926;7.080;2023-04-06T05:53:48;6.93;;;5.03;;
10132;SDS011;5106;50.926;7.080;2023-04-06T05:56:13;5.97;;;5.10;;
10132;SDS011;5106;50.926;7.080;2023-04-06T05:58:39;6.90;;;5.20;;
10132;SDS011;5106;50.926;7.080;2023-04-06T06:01:06;6.97;;;5.80;;
10132;SDS011;5106;50.926;7.080;2023-04-06T06:03:31;7.03;;;5.57;;
10132;SDS011;5106;50.926;7.080;2023-04-06T06:06:00;7.53;;;5.33;;
10132;SDS011;5106;50.926;7.080;2023-04-06T06:08:27;10.17;;;5.27;;
10132;SDS011;5106;50.926;7.080;2023-04-06T06:10:52;7.57;;;6.07;;
10132;SDS011;5106;50.926;7.080;2023-04-06T06:13:18;7.33;;;5.80;;
10132;SDS011;5106;50.926;7.080;2023-04-06T06:15:44;8.10;;;5.80;;
10132;SDS011;5106;50.926;7.080;2023-04-06T06:18:09;8.03;;;6.10;;
10132;SDS011;5106;50.926;7.080;2023-04-06T06:20:35;7.77;;;6.33;;
10132;SDS011;5106;50.926;7.080;2023-04-06T06:23:01;9.03;;;6.67;;
10132;SDS011;5106;50.926;7.080;2023-04-06T06:25:26;8.13;;;6.20;;
10132;SDS011;5106;50.926;7.080;2023-04-06T06:27:52;7.90;;;6.07;;
10132;SDS011;5106;50.926;7.080;2023-04-06T06:30:17;9.03;;;5.63;;
10132;SDS011;5106;50.926;7.080;2023-04-06T06:32:43;8.43;;;6.20;;
10132;SDS011;5106;50.926;7.080;2023-04-06T06:35:09;7.43;;;5.97;;
10132;SDS011;5106;50.926;7.080;2023-04-06T06:37:35;6.97;;;5.37;;
10132;SDS011;5106;50.926;7.080;2023-04-06T06:40:00;11.20;;;5.73;;
10132;SDS011;5106;50.926;7.080;2023-04-06T06:42:26;10.47;;;5.70;;
10132;SDS011;5106;50.926;7.080;2023-04-06T06:44:51;8.83;;;5.50;;
10132;SDS011;5106;50.926;7.080;2023-04-06T06:47:17;6.03;;;4.93;;
10132;SDS011;5106;50.926;7.080;2023-04-06T06:49:43;5.87;;;5.03;;
10132;SDS011;5106;50.926;7.080;2023-04-06T06:52:08;7.87;;;5.43;;
10132;SDS011;5106;50.926;7.080;2023-04-06T06:54:34;9.03;;;5.43;;
10132;SDS011;5106;50.926;7.080;2023-04-06T06:56:59;6.20;;;5.03;;
10132;SDS011;5106;50.926;7.080;2023-04-06T06:59:25;6.57;;;4.90;;
10132;SDS011;5106;50.926;7.080;2023-04-06T07:01:51;6.33;;;5.00;;
10132;SDS011;5106;50.926;7.080;2023-04-06T07:04:16;6.60;;;5.13;;
10132;SDS011;5106;50.926;7.080;2023-04-06T07:06:42;6.53;;;5.00;;
10132;SDS011;5106;50.926;7.080;2023-04-06T07:09:08;9.87;;;5.70;;
10132;SDS011;5106;50.926;7.080;2023-04-06T07:11:34;7.80;;;4.77;;
10132;SDS011;5106;50.926;7.080;2023-04-06T07:14:00;8.10;;;5.30;;
10132;SDS011;5106;50.926;7.080;2023-04-06T07:16:25;6.77;;;4.60;;
10132;SDS011;5106;50.926;7.080;2023-04-06T07:18:51;6.53;;;4.87;;
10132;SDS011;5106;50.926;7.080;2023-04-06T07:21:16;6.80;;;4.87;;
10132;SDS011;5106;50.926;7.080;2023-04-06T07:23:42;5.70;;;5.00;;
10132;SDS011;5106;50.926;7.080;2023-04-06T07:26:08;6.27;;;5.53;;
10132;SDS011;5106;50.926;7.080;2023-04-06T07:28:34;6.70;;;5.00;;
10132;SDS011;5106;50.926;7.080;2023-04-06T07:30:59;8.13;;;5.33;;
10132;SDS011;5106;50.926;7.080;2023-04-06T07:33:25;8.03;;;5.90;;
10132;SDS011;5106;50.926;7.080;2023-04-06T07:35:54;8.30;;;5.33;;
10132;SDS011;5106;50.926;7.080;2023-04-06T07:38:20;7.90;;;5.53;;
10132;SDS011;5106;50.926;7.080;2023-04-06T07:40:46;6.50;;;5.17;;
10132;SDS011;5106;50.926;7.080;2023-04-06T07:43:12;7.17;;;5.40;;
10132;SDS011;5106;50.926;7.080;2023-04-06T07:45:37;5.97;;;5.00;;
10132;SDS011;5106;50.926;7.080;2023-04-06T07:48:03;9.50;;;5.80;;
10132;SDS011;5106;50.926;7.080;2023-04-06T07:50:29;7.50;;;4.73;;
10132;SDS011;5106;50.926;7.080;2023-04-06T07:52:54;7.60;;;5.13;;
10132;SDS011;5106;50.926;7.080;2023-04-06T07:55:20;8.30;;;5.80;;
10132;SDS011;5106;50.926;7.080;2023-04-06T07:57:46;9.67;;;5.83;;
10132;SDS011;5106;50.926;7.080;2023-04-06T08:00:12;9.63;;;5.70;;
10132;SDS011;5106;50.926;7.080;2023-04-06T08:02:38;12.33;;;5.47;;
10132;SDS011;5106;50.926;7.080;2023-04-06T08:05:04;10.93;;;5.77;;
10132;SDS011;5106;50.926;7.080;2023-04-06T08:07:30;13.03;;;5.87;;
10132;SDS011;5106;50.926;7.080;2023-04-06T08:09:56;20.67;;;6.47;;
10132;SDS011;5106;50.926;7.080;2023-04-06T08:12:22;8.85;;;5.65;;
10132;SDS011;5106;50.926;7.080;2023-04-06T08:14:47;8.57;;;5.45;;
10132;SDS011;5106;50.926;7.080;2023-04-06T08:17:13;9.47;;;6.10;;
10132;SDS011;5106;50.926;7.080;2023-04-06T08:19:39;11.63;;;5.77;;
10132;SDS011;5106;50.926;7.080;2023-04-06T08:22:07;9.77;;;6.53;;
10132;SDS011;5106;50.926;7.080;2023-04-06T08:24:32;8.57;;;5.97;;
10132;SDS011;5106;50.926;7.080;2023-04-06T08:26:58;13.47;;;6.00;;
10132;SDS011;5106;50.926;7.080;2023-04-06T08:29:24;10.38;;;5.47;;
10132;SDS011;5106;50.926;7.080;2023-04-06T08:31:49;7.50;;;5.47;;
10132;SDS011;5106;50.926;7.080;2023-04-06T08:34:15;10.10;;;6.18;;
10132;SDS011;5106;50.926;7.080;2023-04-06T08:36:41;9.27;;;6.65;;
10132;SDS011;5106;50.926;7.080;2023-04-06T08:39:06;11.95;;;6.47;;
10132;SDS011;5106;50.926;7.080;2023-04-06T08:41:32;10.30;;;6.30;;
10132;SDS011;5106;50.926;7.080;2023-04-06T08:44:00;11.65;;;6.80;;
10132;SDS011;5106;50.926;7.080;2023-04-06T08:46:26;11.77;;;6.68;;
10132;SDS011;5106;50.926;7.080;2023-04-06T08:48:56;10.27;;;6.72;;
10132;SDS011;5106;50.926;7.080;2023-04-06T08:51:23;10.27;;;6.28;;
10132;SDS011;5106;50.926;7.080;2023-04-06T08:53:51;8.95;;;6.30;;
10132;SDS011;5106;50.926;7.080;2023-04-06T08:56:19;9.18;;;6.68;;
10132;SDS011;5106;50.926;7.080;2023-04-06T08:58:46;9.32;;;6.05;;
10132;SDS011;5106;50.926;7.080;2023-04-06T09:01:13;10.30;;;6.93;;
10132;SDS011;5106;50.926;7.080;2023-04-06T09:03:41;10.32;;;7.28;;
10132;SDS011;5106;50.926;7.080;2023-04-06T09:06:08;7.85;;;6.45;;
10132;SDS011;5106;50.926;7.080;2023-04-06T09:08:35;8.23;;;6.70;;
10132;SDS011;5106;50.926;7.080;2023-04-06T09:11:04;11.95;;;6.13;;
10132;SDS011;5106;50.926;7.080;2023-04-06T09:13:30;11.60;;;7.75;;
10132;SDS011;5106;50.926;7.080;2023-04-06T09:16:02;11.02;;;7.63;;
10132;SDS011;5106;50.926;7.080;2023-04-06T09:18:29;20.08;;;7.20;;
10132;SDS011;5106;50.926;7.080;2023-04-06T09:21:03;9.68;;;7.22;;
10132;SDS011;5106;50.926;7.080;2023-04-06T09:23:30;11.07;;;7.30;;
10132;SDS011;5106;50.926;7.080;2023-04-06T09:26:09;11.55;;;7.13;;
10132;SDS011;5106;50.926;7.080;2023-04-06T09:31:24;12.35;;;7.65;;
10132;SDS011;5106;50.926;7.080;2023-04-06T09:33:51;12.30;;;7.35;;
10132;SDS011;5106;50.926;7.080;2023-04-06T09:36:18;11.00;;;7.38;;
10132;SDS011;5106;50.926;7.080;2023-04-06T09:38:55;11.63;;;7.35;;
10132;SDS011;5106;50.926;7.080;2023-04-06T09:43:49;14.25;;;7.43;;
10132;SDS011;5106;50.926;7.080;2023-04-06T09:46:15;13.68;;;8.07;;
10132;SDS011;5106;50.926;7.080;2023-04-06T09:48:43;12.35;;;7.40;;
10132;SDS011;5106;50.926;7.080;2023-04-06T09:51:09;11.73;;;7.88;;
10132;SDS011;5106;50.926;7.080;2023-04-06T09:53:38;11.52;;;7.80;;
10132;SDS011;5106;50.926;7.080;2023-04-06T09:56:11;11.48;;;8.43;;
10132;SDS011;5106;50.926;7.080;2023-04-06T09:58:38;11.75;;;7.68;;
10132;SDS011;5106;50.926;7.080;2023-04-06T10:01:12;12.20;;;7.32;;
10132;SDS011;5106;50.926;7.080;2023-04-06T10:06:31;12.85;;;8.68;;
10132;SDS011;5106;50.926;7.080;2023-04-06T10:09:00;11.73;;;8.18;;
10132;SDS011;5106;50.926;7.080;2023-04-06T10:11:28;15.50;;;7.50;;
10132;SDS011;5106;50.926;7.080;2023-04-06T10:13:54;11.25;;;7.60;;
10132;SDS011;5106;50.926;7.080;2023-04-06T10:16:21;10.25;;;7.90;;
10132;SDS011;5106;50.926;7.080;2023-04-06T10:18:49;11.68;;;8.18;;
10132;SDS011;5106;50.926;7.080;2023-04-06T10:21:20;13.38;;;8.10;;
10132;SDS011;5106;50.926;7.080;2023-04-06T10:23:58;11.45;;;7.50;;
10132;SDS011;5106;50.926;7.080;2023-04-06T10:26:27;11.65;;;8.43;;
10132;SDS011;5106;50.926;7.080;2023-04-06T10:28:52;12.90;;;8.25;;
10132;SDS011;5106;50.926;7.080;2023-04-06T10:31:26;12.13;;;8.98;;
10132;SDS011;5106;50.926;7.080;2023-04-06T10:33:53;10.90;;;7.70;;
10132;SDS011;5106;50.926;7.080;2023-04-06T10:36:23;15.13;;;8.40;;
10132;SDS011;5106;50.926;7.080;2023-04-06T10:38:57;12.77;;;8.30;;
10132;SDS011;5106;50.926;7.080;2023-04-06T10:41:24;12.55;;;9.00;;
10132;SDS011;5106;50.926;7.080;2023-04-06T10:44:00;11.57;;;7.90;;
10132;SDS011;5106;50.926;7.080;2023-04-06T10:46:30;10.13;;;7.72;;
10132;SDS011;5106;50.926;7.080;2023-04-06T10:48:58;11.35;;;8.48;;
10132;SDS011;5106;50.926;7.080;2023-04-06T10:51:37;11.07;;;8.18;;
10132;SDS011;5106;50.926;7.080;2023-04-06T10:54:03;13.55;;;8.85;;
10132;SDS011;5106;50.926;7.080;2023-04-06T10:56:31;12.65;;;8.27;;
10132;SDS011;5106;50.926;7.080;2023-04-06T10:59:01;13.77;;;8.32;;
10132;SDS011;5106;50.926;7.080;2023-04-06T11:01:27;14.95;;;9.18;;
10132;SDS011;5106;50.926;7.080;2023-04-06T11:03:53;14.40;;;9.30;;
10132;SDS011;5106;50.926;7.080;2023-04-06T11:06:22;13.30;;;8.75;;
10132;SDS011;5106;50.926;7.080;2023-04-06T11:08:52;11.23;;;8.43;;
10132;SDS011;5106;50.926;7.080;2023-04-06T11:11:19;13.07;;;9.05;;
10132;SDS011;5106;50.926;7.080;2023-04-06T11:13:53;12.70;;;9.20;;
10132;SDS011;5106;50.926;7.080;2023-04-06T11:16:38;13.45;;;8.68;;
10132;SDS011;5106;50.926;7.080;2023-04-06T11:19:04;12.10;;;8.27;;
10132;SDS011;5106;50.926;7.080;2023-04-06T11:21:40;15.02;;;9.20;;
10132;SDS011;5106;50.926;7.080;2023-04-06T11:24:19;12.55;;;9.38;;
10132;SDS011;5106;50.926;7.080;2023-04-06T11:26:53;13.73;;;9.55;;
10132;SDS011;5106;50.926;7.080;2023-04-06T11:29:21;12.70;;;8.88;;
10132;SDS011;5106;50.926;7.080;2023-04-06T11:31:53;12.05;;;8.95;;
10132;SDS011;5106;50.926;7.080;2023-04-06T11:34:23;11.90;;;8.98;;
10132;SDS011;5106;50.926;7.080;2023-04-06T11:36:54;15.45;;;9.32;;
10132;SDS011;5106;50.926;7.080;2023-04-06T11:39:25;13.38;;;9.45;;
10132;SDS011;5106;50.926;7.080;2023-04-06T11:42:01;15.80;;;9.60;;
10132;SDS011;5106;50.926;7.080;2023-04-06T11:44:37;13.93;;;9.40;;
10132;SDS011;5106;50.926;7.080;2023-04-06T11:47:14;13.48;;;9.68;;
10132;SDS011;5106;50.926;7.080;2023-04-06T11:49:41;12.55;;;9.27;;
10132;SDS011;5106;50.926;7.080;2023-04-06T11:54:46;13.45;;;9.68;;
10132;SDS011;5106;50.926;7.080;2023-04-06T11:57:12;14.25;;;9.43;;
10132;SDS011;5106;50.926;7.080;2023-04-06T11:59:38;12.40;;;9.02;;
10132;SDS011;5106;50.926;7.080;2023-04-06T12:02:04;14.30;;;9.27;;
10132;SDS011;5106;50.926;7.080;2023-04-06T12:04:30;12.05;;;8.88;;
10132;SDS011;5106;50.926;7.080;2023-04-06T12:06:56;13.23;;;9.15;;
10132;SDS011;5106;50.926;7.080;2023-04-06T12:09:22;17.52;;;9.63;;
10132;SDS011;5106;50.926;7.080;2023-04-06T12:11:48;12.63;;;9.10;;
10132;SDS011;5106;50.926;7.080;2023-04-06T12:14:14;12.43;;;9.30;;
10132;SDS011;5106;50.926;7.080;2023-04-06T12:16:40;12.77;;;8.90;;
10132;SDS011;5106;50.926;7.080;2023-04-06T12:19:05;13.55;;;8.95;;
10132;SDS011;5106;50.926;7.080;2023-04-06T12:21:31;14.50;;;8.90;;
10132;SDS011;5106;50.926;7.080;2023-04-06T12:23:58;14.60;;;9.07;;
10132;SDS011;5106;50.926;7.080;2023-04-06T12:26:24;11.75;;;8.57;;
10132;SDS011;5106;50.926;7.080;2023-04-06T12:28:50;15.32;;;8.85;;
10132;SDS011;5106;50.926;7.080;2023-04-06T12:31:16;12.07;;;8.18;;
10132;SDS011;5106;50.926;7.080;2023-04-06T12:33:43;11.50;;;8.20;;
10132;SDS011;5106;50.926;7.080;2023-04-06T12:36:15;11.02;;;7.93;;
10132;SDS011;5106;50.926;7.080;2023-04-06T12:38:44;13.70;;;7.35;;
10132;SDS011;5106;50.926;7.080;2023-04-06T12:41:11;8.43;;;6.15;;
10132;SDS011;5106;50.926;7.080;2023-04-06T12:43:37;10.15;;;6.43;;
10132;SDS011;5106;50.926;7.080;2023-04-06T12:46:04;9.32;;;6.75;;
10132;SDS011;5106;50.926;7.080;2023-04-06T12:48:30;9.82;;;6.80;;
10132;SDS011;5106;50.926;7.080;2023-04-06T12:50:57;9.60;;;6.30;;
10132;SDS011;5106;50.926;7.080;2023-04-06T12:53:24;10.48;;;7.78;;
10132;SDS011;5106;50.926;7.080;2023-04-06T12:55:49;8.40;;;6.35;;
10132;SDS011;5106;50.926;7.080;2023-04-06T12:58:16;11.27;;;6.97;;
10132;SDS011;5106;50.926;7.080;2023-04-06T13:00:42;7.95;;;6.40;;
10132;SDS011;5106;50.926;7.080;2023-04-06T13:03:08;8.55;;;6.53;;
10132;SDS011;5106;50.926;7.080;2023-04-06T13:05:34;9.57;;;6.80;;
10132;SDS011;5106;50.926;7.080;2023-04-06T13:07:59;7.95;;;6.45;;
10132;SDS011;5106;50.926;7.080;2023-04-06T13:10:25;8.52;;;6.40;;
10132;SDS011;5106;50.926;7.080;2023-04-06T13:12:51;10.10;;;6.65;;
10132;SDS011;5106;50.926;7.080;2023-04-06T13:15:17;9.65;;;6.78;;
10132;SDS011;5106;50.926;7.080;2023-04-06T13:17:43;7.97;;;6.20;;
10132;SDS011;5106;50.926;7.080;2023-04-06T13:20:08;8.70;;;6.05;;
10132;SDS011;5106;50.926;7.080;2023-04-06T13:22:34;7.93;;;6.38;;
10132;SDS011;5106;50.926;7.080;2023-04-06T13:25:00;8.70;;;6.10;;
10132;SDS011;5106;50.926;7.080;2023-04-06T13:27:26;8.70;;;6.45;;
10132;SDS011;5106;50.926;7.080;2023-04-06T13:29:52;8.50;;;5.95;;
10132;SDS011;5106;50.926;7.080;2023-04-06T13:32:19;8.95;;;6.68;;
10132;SDS011;5106;50.926;7.080;2023-04-06T13:34:45;7.28;;;6.18;;
10132;SDS011;5106;50.926;7.080;2023-04-06T13:37:13;9.88;;;6.32;;
10132;SDS011;5106;50.926;7.080;2023-04-06T13:39:38;6.82;;;5.97;;
10132;SDS011;5106;50.926;7.080;2023-04-06T13:42:04;11.07;;;6.85;;
10132;SDS011;5106;50.926;7.080;2023-04-06T13:44:30;8.30;;;6.45;;
10132;SDS011;5106;50.926;7.080;2023-04-06T13:46:56;9.50;;;7.20;;
10132;SDS011;5106;50.926;7.080;2023-04-06T13:49:22;10.00;;;6.63;;
10132;SDS011;5106;50.926;7.080;2023-04-06T13:51:47;9.38;;;7.13;;
10132;SDS011;5106;50.926;7.080;2023-04-06T13:54:13;8.85;;;6.57;;
10132;SDS011;5106;50.926;7.080;2023-04-06T13:56:38;8.88;;;6.72;;
10132;SDS011;5106;50.926;7.080;2023-04-06T13:59:04;8.00;;;5.93;;
10132;SDS011;5106;50.926;7.080;2023-04-06T14:01:30;6.85;;;5.38;;
10132;SDS011;5106;50.926;7.080;2023-04-06T14:03:56;8.10;;;5.30;;
10132;SDS011;5106;50.926;7.080;2023-04-06T14:06:21;8.60;;;4.88;;
10132;SDS011;5106;50.926;7.080;2023-04-06T14:08:47;7.75;;;5.38;;
10132;SDS011;5106;50.926;7.080;2023-04-06T14:11:13;6.90;;;5.03;;
10132;SDS011;5106;50.926;7.080;2023-04-06T14:13:39;7.95;;;5.13;;
10132;SDS011;5106;50.926;7.080;2023-04-06T14:16:05;9.30;;;6.00;;
10132;SDS011;5106;50.926;7.080;2023-04-06T14:18:31;8.30;;;5.93;;
10132;SDS011;5106;50.926;7.080;2023-04-06T14:20:58;8.15;;;6.40;;
10132;SDS011;5106;50.926;7.080;2023-04-06T14:23:25;7.32;;;6.05;;
10132;SDS011;5106;50.926;7.080;2023-04-06T14:26:03;11.07;;;6.57;;
10132;SDS011;5106;50.926;7.080;2023-04-06T14:28:30;8.63;;;6.00;;
10132;SDS011;5106;50.926;7.080;2023-04-06T14:30:57;6.85;;;4.93;;
10132;SDS011;5106;50.926;7.080;2023-04-06T14:33:30;7.38;;;5.15;;
10132;SDS011;5106;50.926;7.080;2023-04-06T14:35:56;6.15;;;4.85;;
10132;SDS011;5106;50.926;7.080;2023-04-06T14:38:21;6.53;;;5.07;;
10132;SDS011;5106;50.926;7.080;2023-04-06T14:40:47;6.55;;;5.43;;
10132;SDS011;5106;50.926;7.080;2023-04-06T14:43:13;7.78;;;5.22;;
10132;SDS011;5106;50.926;7.080;2023-04-06T14:45:40;6.15;;;4.93;;
10132;SDS011;5106;50.926;7.080;2023-04-06T14:48:05;6.20;;;4.78;;
10132;SDS011;5106;50.926;7.080;2023-04-06T14:50:31;6.38;;;5.30;;
10132;SDS011;5106;50.926;7.080;2023-04-06T14:52:58;7.60;;;5.35;;
10132;SDS011;5106;50.926;7.080;2023-04-06T14:55:24;7.00;;;5.75;;
10132;SDS011;5106;50.926;7.080;2023-04-06T14:57:50;7.30;;;6.07;;
10132;SDS011;5106;50.926;7.080;2023-04-06T15:00:15;8.45;;;6.10;;
10132;SDS011;5106;50.926;7.080;2023-04-06T15:02:41;8.05;;;5.90;;
10132;SDS011;5106;50.926;7.080;2023-04-06T15:05:08;7.25;;;5.78;;